createdAt,value
2023-05-09T00:17:08.600Z,3.77
2023-05-09T00:22:51.083Z,4.10
2023-05-09T00:25:50.120Z,3.70
2023-05-09T00:31:54.115Z,4.07
2023-05-09T00:37:40.611Z,3.63
2023-05-09T00:42:30.626Z,4.10
2023-05-09T00:44:57.645Z,4.27
2023-05-09T00:47:39.687Z,3.67
2023-05-09T00:50:51.669Z,3.63
2023-05-09T00:56:15.758Z,3.50
2023-05-09T00:58:24.876Z,3.73
2023-05-09T01:00:31.657Z,4.20
2023-05-09T01:03:06.279Z,3.70
2023-05-09T01:05:20.654Z,3.90
2023-05-09T01:07:24.998Z,3.60
2023-05-09T01:09:27.554Z,3.60
2023-05-09T01:11:30.255Z,3.87
2023-05-09T01:13:30.305Z,3.83
2023-05-09T01:15:34.478Z,3.53
2023-05-09T01:17:39.547Z,3.23
2023-05-09T01:19:56.939Z,3.73
2023-05-09T01:21:53.511Z,3.20
2023-05-09T01:24:08.541Z,3.17
2023-05-09T01:26:06.546Z,3.40
2023-05-09T01:28:10.684Z,3.57
2023-05-09T01:30:10.883Z,3.23
2023-05-09T01:32:10.497Z,3.53
2023-05-09T01:34:07.118Z,3.43
2023-05-09T01:36:07.122Z,3.47
2023-05-09T01:38:02.523Z,3.10
2023-05-09T01:40:01.217Z,3.40
2023-05-09T01:42:37.554Z,3.00
2023-05-09T01:51:14.286Z,3.20
2023-05-09T01:54:52.508Z,3.17
2023-05-09T01:57:23.250Z,3.23
2023-05-09T01:59:57.999Z,3.10
2023-05-09T02:02:26.675Z,3.30
2023-05-09T02:16:50.764Z,3.33
2023-05-09T02:24:07.560Z,2.87
2023-05-09T02:27:22.183Z,2.90
2023-05-09T02:33:45.617Z,3.03
2023-05-09T02:36:06.115Z,2.90
2023-05-09T02:48:29.227Z,2.80
2023-05-09T02:51:16.939Z,3.10
2023-05-09T02:54:18.890Z,2.83
2023-05-09T02:58:12.849Z,3.00
2023-05-09T03:01:25.070Z,2.77
2023-05-09T03:04:33.083Z,3.10
2023-05-09T03:07:36.300Z,3.20
2023-05-09T03:10:11.981Z,3.00
2023-05-09T03:12:28.839Z,2.83
2023-05-09T03:14:32.918Z,3.57
2023-05-09T03:23:52.519Z,3.43
2023-05-09T03:26:11.002Z,2.83
2023-05-09T03:29:13.472Z,2.90
2023-05-09T03:32:17.484Z,2.90
2023-05-09T03:36:03.007Z,2.87
2023-05-09T03:38:13.407Z,3.03
2023-05-09T03:41:00.267Z,3.30
2023-05-09T03:42:55.701Z,3.07
2023-05-09T03:44:51.646Z,3.27
2023-05-09T03:46:46.832Z,3.20
2023-05-09T03:48:43.591Z,3.10
2023-05-09T03:50:39.091Z,3.40
2023-05-09T03:52:37.386Z,3.60
2023-05-09T03:54:35.004Z,3.57
2023-05-09T03:56:31.222Z,3.33
2023-05-09T03:58:26.828Z,3.33
2023-05-09T04:00:24.002Z,3.57
2023-05-09T04:02:19.668Z,3.40
2023-05-09T04:04:17.267Z,3.23
2023-05-09T04:06:13.439Z,3.07
2023-05-09T04:08:09.599Z,3.10
2023-05-09T04:10:08.285Z,3.50
2023-05-09T04:12:04.154Z,7.93
2023-05-09T04:13:59.950Z,3.37
2023-05-09T04:15:55.957Z,2.93
2023-05-09T04:17:51.475Z,2.90
2023-05-09T04:19:48.289Z,3.10
2023-05-09T04:21:43.593Z,3.27
2023-05-09T04:23:43.772Z,3.20
2023-05-09T04:25:41.816Z,3.17
2023-05-09T04:27:39.087Z,4.10
2023-05-09T04:29:35.182Z,3.40
2023-05-09T04:31:31.567Z,3.70
2023-05-09T04:33:29.269Z,3.40
2023-05-09T04:35:25.300Z,3.73
2023-05-09T04:37:21.002Z,3.70
2023-05-09T04:39:18.320Z,3.27
2023-05-09T04:41:16.768Z,3.83
2023-05-09T04:43:12.928Z,3.43
2023-05-09T04:45:09.719Z,3.77
2023-05-09T04:47:23.989Z,3.70
2023-05-09T04:49:46.095Z,3.83
2023-05-09T04:52:37.588Z,4.00
2023-05-09T04:54:58.257Z,4.07
2023-05-09T04:57:17.362Z,4.10
2023-05-09T05:00:08.610Z,4.37
2023-05-09T05:03:03.746Z,4.20
2023-05-09T05:05:25.110Z,4.67
2023-05-09T05:07:57.685Z,3.70
2023-05-09T05:13:49.558Z,4.70
2023-05-09T05:20:02.507Z,3.70
2023-05-09T05:25:49.606Z,3.77
2023-05-09T05:28:46.180Z,4.30
2023-05-09T05:32:00.586Z,4.00
2023-05-09T05:33:57.817Z,3.70
2023-05-09T05:36:01.198Z,3.77
2023-05-09T05:37:57.507Z,3.73
2023-05-09T05:39:53.574Z,3.40
2023-05-09T05:41:48.603Z,4.20
2023-05-09T05:43:44.139Z,3.70
2023-05-09T05:45:39.163Z,3.60
2023-05-09T05:47:35.419Z,3.50
2023-05-09T05:49:33.396Z,3.70
2023-05-09T05:51:28.761Z,3.73
2023-05-09T05:53:23.980Z,4.30
2023-05-09T05:55:20.599Z,3.60
2023-05-09T05:57:15.537Z,3.90
2023-05-09T05:59:13.187Z,3.27
2023-05-09T06:01:08.638Z,3.67
2023-05-09T06:03:04.061Z,4.27
2023-05-09T06:05:01.864Z,3.17
2023-05-09T06:06:57.266Z,3.47
2023-05-09T06:08:52.910Z,3.63
2023-05-09T06:13:17.128Z,3.77
2023-05-09T06:15:14.385Z,3.03
2023-05-09T06:17:09.893Z,3.67
2023-05-09T06:19:07.037Z,3.53
2023-05-09T06:21:06.254Z,3.77
2023-05-09T06:23:01.902Z,3.17
2023-05-09T06:24:56.979Z,3.50
2023-05-09T06:26:53.183Z,3.60
2023-05-09T06:28:56.868Z,3.23
2023-05-09T06:33:22.324Z,3.40
2023-05-09T06:35:18.314Z,3.60
2023-05-09T06:37:16.037Z,3.60
2023-05-09T06:39:11.589Z,3.57
2023-05-09T06:41:07.135Z,3.13
2023-05-09T06:43:03.114Z,3.67
2023-05-09T06:45:02.972Z,3.53
2023-05-09T06:46:58.959Z,3.40
2023-05-09T06:48:54.243Z,3.30
2023-05-09T06:50:52.599Z,3.60
2023-05-09T06:52:51.672Z,4.13
2023-05-09T06:56:06.773Z,3.10
2023-05-09T06:58:04.445Z,3.83
2023-05-09T07:00:40.590Z,3.50
2023-05-09T07:03:12.383Z,3.10
2023-05-09T07:05:22.565Z,3.30
2023-05-09T07:10:13.245Z,3.73
2023-05-09T07:12:20.469Z,4.23
2023-05-09T07:14:16.080Z,3.40
2023-05-09T07:16:12.366Z,3.67
2023-05-09T07:18:08.137Z,3.40
2023-05-09T07:20:04.234Z,3.50
2023-05-09T07:21:59.662Z,3.47
2023-05-09T07:23:54.676Z,3.80
2023-05-09T07:25:52.758Z,3.60
2023-05-09T07:27:47.852Z,3.30
2023-05-09T07:29:43.245Z,3.83
2023-05-09T07:31:38.377Z,3.33
2023-05-09T07:33:33.887Z,3.97
2023-05-09T07:37:46.062Z,3.47
2023-05-09T07:39:54.641Z,3.80
2023-05-09T07:42:32.980Z,3.47
2023-05-09T07:44:56.462Z,3.30
2023-05-09T07:46:51.892Z,3.23
2023-05-09T07:48:47.124Z,3.53
2023-05-09T07:50:43.051Z,3.20
2023-05-09T07:52:38.085Z,3.40
2023-05-09T07:54:33.584Z,3.53
2023-05-09T07:56:29.093Z,3.07
2023-05-09T07:58:27.130Z,3.23
2023-05-09T08:00:24.143Z,3.03
2023-05-09T08:02:19.683Z,3.27
2023-05-09T08:04:14.957Z,3.20
2023-05-09T08:06:10.891Z,3.47
2023-05-09T08:08:06.143Z,2.97
2023-05-09T08:10:01.579Z,3.57
2023-05-09T08:11:56.585Z,3.80
2023-05-09T08:13:56.075Z,3.37
2023-05-09T08:15:51.461Z,3.67
2023-05-09T08:17:46.917Z,3.40
2023-05-09T08:19:42.049Z,3.40
2023-05-09T08:21:38.051Z,3.10
2023-05-09T08:23:33.385Z,3.33
2023-05-09T08:25:29.749Z,3.67
2023-05-09T08:27:25.390Z,2.97
2023-05-09T08:29:23.787Z,3.20
2023-05-09T08:31:21.747Z,3.57
2023-05-09T08:33:19.907Z,3.17
2023-05-09T08:35:15.516Z,2.83
2023-05-09T08:37:12.974Z,3.00
2023-05-09T08:39:19.459Z,3.30
2023-05-09T08:41:31.125Z,2.80
2023-05-09T08:43:27.300Z,3.40
2023-05-09T08:45:29.793Z,3.13
2023-05-09T08:47:25.522Z,3.27
2023-05-09T08:49:21.894Z,3.07
2023-05-09T08:51:18.807Z,3.30
2023-05-09T08:53:17.101Z,3.20
2023-05-09T08:55:12.833Z,2.88
2023-05-09T08:57:08.902Z,2.92
2023-05-09T08:59:06.872Z,3.05
2023-05-09T09:01:37.522Z,3.20
2023-05-09T09:03:47.739Z,2.88
2023-05-09T09:05:50.289Z,2.65
2023-05-09T09:07:46.835Z,3.20
2023-05-09T09:12:54.124Z,2.63
2023-05-09T09:14:52.535Z,2.53
2023-05-09T09:16:52.229Z,2.85
2023-05-09T09:18:48.890Z,2.40
2023-05-09T09:21:00.816Z,3.00
2023-05-09T09:22:58.547Z,2.90
2023-05-09T09:24:53.931Z,2.63
2023-05-09T09:26:53.723Z,3.00
2023-05-09T09:28:48.727Z,2.78
2023-05-09T09:35:26.503Z,3.03
2023-05-09T09:37:27.476Z,2.60
2023-05-09T09:39:23.285Z,2.92
2023-05-09T09:41:18.300Z,2.90
2023-05-09T09:43:13.791Z,2.95
2023-05-09T09:45:13.549Z,3.15
2023-05-09T09:47:13.628Z,3.55
2023-05-09T09:49:12.254Z,3.05
2023-05-09T09:51:12.878Z,3.00
2023-05-09T09:53:07.959Z,3.40
2023-05-09T09:55:03.491Z,3.25
2023-05-09T09:56:58.957Z,3.00
2023-05-09T09:59:11.455Z,3.05
2023-05-09T10:01:11.236Z,2.70
2023-05-09T10:03:06.887Z,2.78
2023-05-09T10:05:12.207Z,2.90
2023-05-09T10:07:11.544Z,2.80
2023-05-09T10:09:08.917Z,2.90
2023-05-09T10:11:04.551Z,3.10
2023-05-09T10:13:01.183Z,3.17
2023-05-09T10:14:57.387Z,2.78
2023-05-09T10:16:53.941Z,2.92
2023-05-09T10:18:49.682Z,2.65
2023-05-09T10:20:48.875Z,3.22
2023-05-09T10:22:44.916Z,2.78
2023-05-09T10:24:45.371Z,3.33
2023-05-09T10:26:44.013Z,2.47
2023-05-09T10:28:43.384Z,2.97
2023-05-09T10:30:48.466Z,2.95
2023-05-09T10:32:55.178Z,2.88
2023-05-09T10:35:21.381Z,3.15
2023-05-09T10:37:23.258Z,2.80
2023-05-09T10:45:04.515Z,2.53
2023-05-09T10:47:00.211Z,2.50
2023-05-09T10:48:56.925Z,2.70
2023-05-09T10:50:52.710Z,3.22
2023-05-09T10:53:14.523Z,2.80
2023-05-09T10:55:17.966Z,2.90
2023-05-09T10:57:24.222Z,2.83
2023-05-09T10:59:44.756Z,3.22
2023-05-09T11:01:42.355Z,2.92
2023-05-09T11:03:57.093Z,2.60
2023-05-09T11:05:54.786Z,2.60
2023-05-09T11:07:50.154Z,3.08
2023-05-09T11:09:53.637Z,2.95
2023-05-09T11:12:12.337Z,3.15
2023-05-09T11:14:07.945Z,2.75
2023-05-09T11:16:13.733Z,2.70
2023-05-09T11:18:17.081Z,2.97
2023-05-09T11:20:15.648Z,2.72
2023-05-09T11:22:18.644Z,3.00
2023-05-09T11:24:22.865Z,2.80
2023-05-09T11:26:36.325Z,3.10
2023-05-09T11:28:35.691Z,2.15
2023-05-09T11:30:43.851Z,2.55
2023-05-09T11:32:46.434Z,2.70
2023-05-09T11:34:48.755Z,2.63
2023-05-09T11:36:50.985Z,2.60
2023-05-09T11:38:47.395Z,2.25
2023-05-09T11:40:44.072Z,2.63
2023-05-09T11:42:46.286Z,3.03
2023-05-09T11:44:43.790Z,2.28
2023-05-09T11:46:46.431Z,2.58
2023-05-09T11:48:54.566Z,2.63
2023-05-09T11:51:07.003Z,3.00
2023-05-09T11:53:14.476Z,2.63
2023-05-09T11:55:20.731Z,2.67
2023-05-09T11:57:26.685Z,2.42
2023-05-09T11:59:28.796Z,3.63
2023-05-09T12:01:42.234Z,2.60
2023-05-09T12:03:53.367Z,2.83
2023-05-09T12:05:56.177Z,2.38
2023-05-09T12:07:55.700Z,2.55
2023-05-09T12:10:07.917Z,2.50
2023-05-09T12:12:05.000Z,2.72
2023-05-09T12:14:00.269Z,3.15
2023-05-09T12:16:03.342Z,2.38
2023-05-09T12:18:07.028Z,2.78
2023-05-09T12:20:07.023Z,2.60
2023-05-09T12:22:06.932Z,2.80
2023-05-09T12:24:03.135Z,2.90
2023-05-09T12:26:04.559Z,2.58
2023-05-09T12:28:00.386Z,2.83
2023-05-09T12:29:56.714Z,3.08
2023-05-09T12:31:56.249Z,2.60
2023-05-09T12:33:52.347Z,2.65
2023-05-09T12:35:49.899Z,2.72
2023-05-09T12:37:59.489Z,3.05
2023-05-09T12:40:06.883Z,3.25
2023-05-09T12:42:23.603Z,2.63
2023-05-09T13:49:15.957Z,2.83
2023-05-09T14:00:49.711Z,2.35
2023-05-09T14:06:57.245Z,2.40
2023-05-09T14:10:10.999Z,2.47
2023-05-09T14:53:54.360Z,2.60
2023-05-09T14:57:01.734Z,2.95
2023-05-09T15:00:19.689Z,2.22
2023-05-09T15:02:58.889Z,2.13
2023-05-09T15:05:21.454Z,2.53
2023-05-09T15:08:11.124Z,2.40
2023-05-09T15:11:13.659Z,2.67
2023-05-09T15:22:05.419Z,2.70
2023-05-09T15:29:23.054Z,2.22
2023-05-09T15:32:22.897Z,2.33
2023-05-09T16:39:37.167Z,2.75
2023-05-09T17:08:41.038Z,2.92
2023-05-09T17:11:34.000Z,2.88
2023-05-09T17:13:50.597Z,3.00
2023-05-09T17:16:03.717Z,2.67
2023-05-09T17:21:55.189Z,3.70
2023-05-09T17:27:12.017Z,2.63
2023-05-09T17:29:09.921Z,3.22
2023-05-09T17:31:51.072Z,3.05
2023-05-09T17:33:52.806Z,3.13
2023-05-09T17:35:57.823Z,3.47
2023-05-09T17:39:19.915Z,3.55
2023-05-09T17:41:21.024Z,3.00
2023-05-09T17:43:35.937Z,3.65
2023-05-09T17:45:38.837Z,3.22
2023-05-09T17:48:19.040Z,3.33
2023-05-09T17:50:27.788Z,3.33
2023-05-09T17:52:29.880Z,3.45
2023-05-09T17:54:45.892Z,3.10
2023-05-09T17:56:52.401Z,3.10
2023-05-09T17:59:05.538Z,2.65
2023-05-09T18:02:00.272Z,2.80
2023-05-09T18:04:19.961Z,3.00
2023-05-09T18:06:26.817Z,3.00
2023-05-09T18:09:22.423Z,3.20
2023-05-09T18:47:31.627Z,3.08
2023-05-09T18:50:26.397Z,2.85
2023-05-09T18:56:29.369Z,3.13
2023-05-09T19:09:13.617Z,3.72
2023-05-09T21:27:54.258Z,3.95
2023-05-09T21:34:55.805Z,3.67
2023-05-09T21:37:22.993Z,4.35
2023-05-09T21:39:19.236Z,3.85
2023-05-09T21:41:16.577Z,3.70
2023-05-09T21:43:18.388Z,3.90
2023-05-09T21:45:16.574Z,3.78
2023-05-09T21:47:15.577Z,3.88
2023-05-09T21:49:12.116Z,4.13
2023-05-09T21:51:15.511Z,3.90
2023-05-09T21:53:18.372Z,4.10
2023-05-09T21:55:18.643Z,4.80
2023-05-09T21:57:17.580Z,4.60
2023-05-09T21:59:21.128Z,3.78
2023-05-09T22:01:19.064Z,4.00
2023-05-09T22:03:19.473Z,4.50
2023-05-09T22:05:15.585Z,4.03
2023-05-09T22:07:11.194Z,4.43
2023-05-09T22:09:08.986Z,4.28
2023-05-09T22:11:14.192Z,4.72
2023-05-09T22:13:10.649Z,4.38
2023-05-09T22:15:17.232Z,4.43
2023-05-09T22:17:12.690Z,4.28
2023-05-09T22:19:08.276Z,4.18
2023-05-09T22:21:03.554Z,4.57
2023-05-09T22:22:59.300Z,4.40
2023-05-09T22:24:57.366Z,4.35
2023-05-09T22:26:53.851Z,4.88
2023-05-09T22:28:49.043Z,4.35
2023-05-09T22:30:44.572Z,4.55
2023-05-09T22:32:39.988Z,4.82
2023-05-09T22:34:35.609Z,4.88
2023-05-09T22:36:30.706Z,4.53
2023-05-09T22:38:26.356Z,4.93
2023-05-09T22:40:24.430Z,4.95
2023-05-09T22:42:20.465Z,5.25
2023-05-09T22:44:16.016Z,4.72
2023-05-09T22:46:12.116Z,4.80
2023-05-09T22:48:22.532Z,4.63
2023-05-09T22:50:18.681Z,4.82
2023-05-09T22:52:17.257Z,4.80
2023-05-09T22:54:27.625Z,4.68
2023-05-09T22:56:30.207Z,4.88
2023-05-09T22:58:28.434Z,5.05
2023-05-09T23:00:39.531Z,4.97
2023-05-09T23:02:50.322Z,4.82
2023-05-09T23:05:01.461Z,5.03
2023-05-09T23:07:16.406Z,5.15
2023-05-09T23:12:27.697Z,5.15
2023-05-09T23:14:38.451Z,5.03
2023-05-09T23:16:33.616Z,5.03
2023-05-09T23:18:30.563Z,5.13
2023-05-09T23:20:26.341Z,5.35
2023-05-09T23:22:29.047Z,5.18
2023-05-09T23:24:25.821Z,5.05
2023-05-09T23:26:21.901Z,5.40
2023-05-09T23:28:20.376Z,5.05
2023-05-09T23:30:18.024Z,5.55
2023-05-09T23:32:13.575Z,6.43
2023-05-09T23:34:18.721Z,5.00
2023-05-09T23:36:14.270Z,5.10
2023-05-09T23:38:33.572Z,5.60
2023-05-09T23:48:21.679Z,4.97
2023-05-09T23:51:12.251Z,5.35
2023-05-09T23:53:40.214Z,5.30
2023-05-09T23:55:39.250Z,5.25
2023-05-09T23:57:42.723Z,4.97
2023-05-09T23:59:43.774Z,5.30
